createdAt,value
2022-10-22T00:01:38.948Z,100836.63
2022-10-22T00:04:06.719Z,100837.88
2022-10-22T00:06:34.117Z,100843.41
2022-10-22T00:09:00.867Z,100851.38
2022-10-22T00:11:27.518Z,100856.94
2022-10-22T00:13:54.093Z,100848.50
2022-10-22T00:16:20.679Z,100858.34
2022-10-22T00:18:47.233Z,100868.22
2022-10-22T00:21:13.873Z,100873.13
2022-10-22T00:23:42.444Z,100870.25
2022-10-22T00:26:10.065Z,100869.44
2022-10-22T00:28:37.011Z,100869.03
2022-10-22T00:31:03.680Z,100866.56
2022-10-22T00:33:30.662Z,100865.16
2022-10-22T00:35:57.809Z,100870.66
2022-10-22T00:38:24.579Z,100871.72
2022-10-22T00:40:51.255Z,100877.03
2022-10-22T00:43:19.415Z,100873.34
2022-10-22T00:45:46.328Z,100877.25
2022-10-22T00:48:33.414Z,100884.22
2022-10-22T00:51:03.333Z,100877.91
2022-10-22T00:53:37.778Z,100881.97
2022-10-22T00:56:05.409Z,100890.78
2022-10-22T00:58:36.857Z,100890.34
2022-10-22T01:01:06.603Z,100895.84
2022-10-22T01:03:33.241Z,100899.50
2022-10-22T01:06:03.394Z,100899.69
2022-10-22T01:09:03.275Z,100907.22
2022-10-22T01:11:37.750Z,100893.28
2022-10-22T01:14:25.558Z,100892.44
2022-10-22T01:16:58.733Z,100893.25
2022-10-22T01:19:32.733Z,100903.44
2022-10-22T01:22:24.554Z,100899.53
2022-10-22T01:25:13.020Z,100890.25
2022-10-22T01:28:16.196Z,100894.50
2022-10-22T01:30:45.532Z,100900.22
2022-10-22T01:33:15.508Z,100894.50
2022-10-22T01:35:45.215Z,100896.34
2022-10-22T01:38:17.711Z,100896.94
2022-10-22T01:40:45.437Z,100890.56
2022-10-22T01:43:12.452Z,100899.63
2022-10-22T01:45:52.194Z,100893.06
2022-10-22T01:48:49.289Z,100887.72
2022-10-22T01:51:32.104Z,100888.19
2022-10-22T01:54:07.701Z,100889.03
2022-10-22T01:56:36.235Z,100890.69
2022-10-22T01:59:05.489Z,100890.91
2022-10-22T02:01:42.741Z,100894.38
2022-10-22T02:04:34.110Z,100891.66
2022-10-22T02:07:04.896Z,100899.88
2022-10-22T02:09:33.052Z,100899.25
2022-10-22T02:12:02.714Z,100902.72
2022-10-22T02:14:31.441Z,100897.19
2022-10-22T02:17:00.277Z,100892.88
2022-10-22T02:19:34.009Z,100901.31
2022-10-22T02:22:00.621Z,100899.28
2022-10-22T02:24:27.618Z,100898.91
2022-10-22T02:27:25.938Z,100899.91
2022-10-22T02:30:08.514Z,100905.06
2022-10-22T02:32:49.652Z,100909.16
2022-10-22T02:35:21.085Z,100899.13
2022-10-22T02:37:49.223Z,100904.09
2022-10-22T02:40:16.626Z,100901.59
2022-10-22T02:42:43.959Z,100905.50
2022-10-22T02:45:10.732Z,100906.94
2022-10-22T02:47:37.266Z,100908.34
2022-10-22T02:50:06.695Z,100908.56
2022-10-22T02:52:36.192Z,100900.56
2022-10-22T02:55:03.040Z,100894.41
2022-10-22T02:57:29.543Z,100902.63
2022-10-22T02:59:56.106Z,100904.06
2022-10-22T03:02:22.575Z,100900.56
2022-10-22T03:04:49.138Z,100907.72
2022-10-22T03:07:15.752Z,100912.63
2022-10-22T03:09:42.314Z,100913.66
2022-10-22T03:12:09.114Z,100913.19
2022-10-22T03:14:36.118Z,100916.06
2022-10-22T03:17:02.888Z,100920.94
2022-10-22T03:19:29.407Z,100913.13
2022-10-22T03:22:00.064Z,100906.91
2022-10-22T03:24:31.556Z,100902.59
2022-10-22T03:26:58.466Z,100911.31
2022-10-22T03:29:26.797Z,100910.94
2022-10-22T03:31:54.792Z,100906.22
2022-10-22T03:34:21.945Z,100905.63
2022-10-22T03:36:51.006Z,100922.88
2022-10-22T03:39:20.035Z,100923.91
2022-10-22T03:41:48.234Z,100926.41
2022-10-22T03:44:15.863Z,100925.59
2022-10-22T03:46:42.417Z,100931.31
2022-10-22T03:49:09.166Z,100933.97
2022-10-22T03:51:35.987Z,100932.97
2022-10-22T03:54:04.029Z,100931.97
2022-10-22T03:56:30.976Z,100926.28
2022-10-22T03:58:58.736Z,100930.94
2022-10-22T04:01:26.106Z,100929.31
2022-10-22T04:03:53.101Z,100940.19
2022-10-22T04:06:19.608Z,100941.03
2022-10-22T04:08:46.584Z,100949.69
2022-10-22T04:11:14.347Z,100948.00
2022-10-22T04:13:41.395Z,100945.72
2022-10-22T04:16:17.356Z,100950.03
2022-10-22T04:18:45.458Z,100958.25
2022-10-22T04:21:15.409Z,100962.56
2022-10-22T04:23:50.433Z,100957.66
2022-10-22T04:26:17.932Z,100969.97
2022-10-22T04:28:45.470Z,100967.72
2022-10-22T04:31:15.082Z,100968.16
2022-10-22T04:33:43.608Z,100970.44
2022-10-22T04:36:12.979Z,100972.88
2022-10-22T04:38:40.711Z,100974.69
2022-10-22T04:41:19.706Z,100973.06
2022-10-22T04:43:47.379Z,100971.00
2022-10-22T04:46:15.693Z,100985.53
2022-10-22T04:48:43.684Z,100979.81
2022-10-22T04:51:12.634Z,100973.88
2022-10-22T04:53:40.638Z,100983.88
2022-10-22T04:56:21.542Z,100987.94
2022-10-22T04:58:49.815Z,100995.97
2022-10-22T05:01:18.983Z,100992.34
2022-10-22T05:03:47.560Z,101001.97
2022-10-22T05:06:17.246Z,101009.16
2022-10-22T05:08:44.356Z,101008.97
2022-10-22T05:11:18.854Z,101011.03
2022-10-22T05:13:45.493Z,101017.81
2022-10-22T05:16:15.428Z,101024.41
2022-10-22T05:18:43.926Z,101018.03
2022-10-22T05:21:16.550Z,101013.09
2022-10-22T05:23:44.528Z,101022.72
2022-10-22T05:26:12.727Z,101018.22
2022-10-22T05:28:39.896Z,101030.06
2022-10-22T05:31:07.990Z,101029.28
2022-10-22T05:33:35.210Z,101021.50
2022-10-22T05:36:03.105Z,101028.44
2022-10-22T05:38:29.686Z,101027.22
2022-10-22T05:41:04.038Z,101034.63
2022-10-22T05:43:30.988Z,101036.47
2022-10-22T05:46:02.373Z,101039.94
2022-10-22T05:48:28.917Z,101045.66
2022-10-22T05:50:56.282Z,101049.59
2022-10-22T05:53:22.820Z,101054.72
2022-10-22T05:55:49.360Z,101055.94
2022-10-22T05:58:15.936Z,101062.72
2022-10-22T06:00:42.414Z,101067.44
2022-10-22T06:03:08.912Z,101070.09
2022-10-22T06:05:37.136Z,101068.47
2022-10-22T06:08:05.219Z,101073.81
2022-10-22T06:10:32.141Z,101076.66
2022-10-22T06:12:58.714Z,101077.69
2022-10-22T06:15:25.221Z,101075.63
2022-10-22T06:17:51.770Z,101078.09
2022-10-22T06:20:18.475Z,101086.09
2022-10-22T06:22:45.166Z,101081.97
2022-10-22T06:25:12.553Z,101083.03
2022-10-22T06:27:39.150Z,101088.34
2022-10-22T06:30:06.414Z,101091.63
2022-10-22T06:32:32.980Z,101096.34
2022-10-22T06:34:59.483Z,101097.75
2022-10-22T06:37:26.042Z,101098.16
2022-10-22T06:39:52.585Z,101109.44
2022-10-22T06:42:19.101Z,101116.38
2022-10-22T06:44:45.589Z,101121.50
2022-10-22T06:47:12.157Z,101130.13
2022-10-22T06:49:38.730Z,101128.91
2022-10-22T06:52:05.417Z,101137.31
2022-10-22T06:54:32.051Z,101143.06
2022-10-22T06:56:58.535Z,101134.44
2022-10-22T06:59:25.355Z,101139.78
2022-10-22T07:01:51.937Z,101144.88
2022-10-22T07:04:18.577Z,101142.03
2022-10-22T07:06:46.574Z,101146.72
2022-10-22T07:09:13.703Z,101152.25
2022-10-22T07:11:45.932Z,101164.56
2022-10-22T07:14:13.847Z,101146.91
2022-10-22T07:16:45.634Z,101161.31
2022-10-22T07:19:12.788Z,101168.09
2022-10-22T07:21:39.851Z,101167.25
2022-10-22T07:24:06.763Z,101183.44
2022-10-22T07:26:33.361Z,101182.63
2022-10-22T07:29:01.085Z,101187.94
2022-10-22T07:31:27.989Z,101190.81
2022-10-22T07:33:54.768Z,101194.94
2022-10-22T07:36:22.999Z,101208.25
2022-10-22T07:38:57.985Z,101201.88
2022-10-22T07:41:25.746Z,101209.66
2022-10-22T07:43:52.383Z,101217.63
2022-10-22T07:46:19.521Z,101218.66
2022-10-22T07:48:46.159Z,101230.78
2022-10-22T07:51:13.392Z,101232.63
2022-10-22T07:53:40.082Z,101240.81
2022-10-22T07:56:06.937Z,101247.31
2022-10-22T07:58:33.763Z,101243.16
2022-10-22T08:01:01.894Z,101244.47
2022-10-22T08:03:29.327Z,101250.75
2022-10-22T08:05:56.078Z,101257.03
2022-10-22T08:08:25.830Z,101262.75
2022-10-22T08:10:58.606Z,101269.09
2022-10-22T08:13:26.293Z,101268.66
2022-10-22T08:15:56.450Z,101274.06
2022-10-22T08:18:24.450Z,101274.50
2022-10-22T08:20:54.021Z,101291.97
2022-10-22T08:23:25.937Z,101288.78
2022-10-22T08:25:54.241Z,101294.28
2022-10-22T08:28:22.101Z,101294.59
2022-10-22T08:30:49.018Z,101297.69
2022-10-22T08:33:15.642Z,101298.34
2022-10-22T08:35:42.393Z,101300.63
2022-10-22T08:38:08.975Z,101300.69
2022-10-22T08:40:40.642Z,101310.94
2022-10-22T08:43:20.371Z,101314.69
2022-10-22T08:46:02.701Z,101318.78
2022-10-22T08:48:43.783Z,101322.53
2022-10-22T08:51:20.384Z,101325.72
2022-10-22T08:54:14.788Z,101336.50
2022-10-22T08:56:45.597Z,101333.19
2022-10-22T08:59:18.323Z,101333.72
2022-10-22T09:01:53.153Z,101346.06
2022-10-22T09:04:36.747Z,101330.38
2022-10-22T09:07:03.365Z,101330.69
2022-10-22T09:09:36.033Z,101338.81
2022-10-22T09:12:04.606Z,101347.25
2022-10-22T09:14:31.445Z,101352.44
2022-10-22T09:17:27.326Z,101348.00
2022-10-22T09:20:01.962Z,101355.84
2022-10-22T09:22:37.863Z,101361.22
2022-10-22T09:25:25.149Z,101365.41
2022-10-22T09:27:58.280Z,101357.25
2022-10-22T09:30:28.643Z,101359.00
2022-10-22T09:33:01.440Z,101358.50
2022-10-22T09:35:29.770Z,101361.25
2022-10-22T09:37:57.013Z,101365.53
2022-10-22T09:40:23.877Z,101363.03
2022-10-22T09:42:50.387Z,101372.47
2022-10-22T09:45:28.740Z,101374.13
2022-10-22T09:48:15.275Z,101373.59
2022-10-22T09:50:41.759Z,101387.50
2022-10-22T09:53:19.050Z,101380.59
2022-10-22T09:55:52.712Z,101391.31
2022-10-22T09:58:20.082Z,101384.47
2022-10-22T10:00:53.291Z,101377.69
2022-10-22T10:03:27.326Z,101383.09
2022-10-22T10:06:02.985Z,101393.66
2022-10-22T10:08:32.617Z,101393.91
2022-10-22T10:11:28.059Z,101405.47
2022-10-22T10:14:10.076Z,101405.34
2022-10-22T10:16:59.312Z,101415.22
2022-10-22T10:19:39.042Z,101410.50
2022-10-22T10:22:31.558Z,101415.63
2022-10-22T10:25:43.119Z,101419.72
2022-10-22T10:28:19.932Z,101411.44
2022-10-22T10:31:06.285Z,101419.72
2022-10-22T10:33:53.803Z,101422.94
2022-10-22T10:37:12.804Z,101426.41
2022-10-22T10:39:51.576Z,101429.97
2022-10-22T10:42:25.965Z,101420.47
2022-10-22T10:45:04.497Z,101430.66
2022-10-22T10:48:05.987Z,101429.72
2022-10-22T10:50:59.921Z,101427.59
2022-10-22T10:53:56.947Z,101433.50
2022-10-22T10:56:47.316Z,101428.59
2022-10-22T10:59:19.229Z,101430.25
2022-10-22T11:02:10.634Z,101425.78
2022-10-22T11:05:14.466Z,101440.88
2022-10-22T11:07:49.927Z,101423.94
2022-10-22T11:10:30.299Z,101433.47
2022-10-22T11:13:16.891Z,101427.31
2022-10-22T11:15:50.469Z,101430.03
2022-10-22T11:18:56.631Z,101436.09
2022-10-22T11:21:33.182Z,101445.72
2022-10-22T11:24:13.365Z,101451.00
2022-10-22T11:26:54.892Z,101450.34
2022-10-22T11:29:28.245Z,101457.00
2022-10-22T11:31:58.694Z,101452.94
2022-10-22T11:34:34.271Z,101462.47
2022-10-22T11:37:01.991Z,101459.19
2022-10-22T11:39:42.893Z,101468.53
2022-10-22T11:42:20.411Z,101467.50
2022-10-22T11:45:04.205Z,101461.31
2022-10-22T11:47:51.930Z,101465.28
2022-10-22T11:50:23.103Z,101457.78
2022-10-22T11:53:12.676Z,101464.75
2022-10-22T11:55:48.797Z,101454.69
2022-10-22T11:58:50.845Z,101458.59
2022-10-22T12:01:27.572Z,101456.75
2022-10-22T12:03:59.844Z,101454.56
2022-10-22T12:06:28.021Z,101443.78
2022-10-22T12:08:54.731Z,101442.38
2022-10-22T12:11:47.889Z,101444.34
2022-10-22T12:14:19.947Z,101442.91
2022-10-22T12:16:57.583Z,101461.63
2022-10-22T12:19:29.252Z,101455.41
2022-10-22T12:22:18.182Z,101461.56
2022-10-22T12:24:49.503Z,101456.94
2022-10-22T12:27:24.885Z,101453.72
2022-10-22T12:29:56.757Z,101464.84
2022-10-22T12:32:24.342Z,101450.53
2022-10-22T12:34:52.488Z,101444.72
2022-10-22T12:37:22.146Z,101447.97
2022-10-22T12:39:48.658Z,101439.31
2022-10-22T12:42:17.884Z,101452.19
2022-10-22T12:44:45.230Z,101452.91
2022-10-22T12:47:17.180Z,101443.88
2022-10-22T12:49:47.351Z,101448.81
2022-10-22T12:52:22.909Z,101434.06
2022-10-22T12:54:55.105Z,101431.00
2022-10-22T12:57:22.374Z,101422.72
2022-10-22T12:59:51.658Z,101422.53
2022-10-22T13:02:24.644Z,101424.84
2022-10-22T13:05:20.385Z,101432.25
2022-10-22T13:07:52.123Z,101430.03
2022-10-22T13:10:25.880Z,101422.38
2022-10-22T13:12:56.458Z,101423.13
2022-10-22T13:15:35.695Z,101426.63
2022-10-22T13:18:15.708Z,101419.00
2022-10-22T13:21:03.363Z,101446.06
2022-10-22T13:23:34.525Z,101445.72
2022-10-22T13:26:16.549Z,101441.47
2022-10-22T13:28:50.464Z,101440.19
2022-10-22T13:31:28.926Z,101444.88
2022-10-22T13:34:02.472Z,101438.09
2022-10-22T13:36:32.000Z,101436.75
2022-10-22T13:38:59.217Z,101425.72
2022-10-22T13:41:33.522Z,101425.66
2022-10-22T13:44:00.084Z,101434.78
2022-10-22T13:46:27.586Z,101436.03
2022-10-22T13:48:56.185Z,101439.59
2022-10-22T13:51:25.246Z,101440.47
2022-10-22T13:53:53.683Z,101433.78
2022-10-22T13:56:21.749Z,101441.94
2022-10-22T13:58:48.885Z,101435.25
2022-10-22T14:01:23.021Z,101440.22
2022-10-22T14:03:52.056Z,101439.44
2022-10-22T14:06:21.025Z,101445.00
2022-10-22T14:08:51.675Z,101445.34
2022-10-22T14:11:18.477Z,101438.81
2022-10-22T14:13:45.034Z,101442.66
2022-10-22T14:16:19.817Z,101454.56
2022-10-22T14:18:47.803Z,101448.03
2022-10-22T14:21:15.768Z,101449.22
2022-10-22T14:23:45.133Z,101445.22
2022-10-22T14:26:22.353Z,101450.28
2022-10-22T14:29:08.909Z,101451.06
2022-10-22T14:31:37.610Z,101449.44
2022-10-22T14:34:04.227Z,101440.31
2022-10-22T14:36:30.902Z,101436.56
2022-10-22T14:38:57.403Z,101434.19
2022-10-22T14:41:25.857Z,101434.38
2022-10-22T14:43:52.792Z,101434.31
2022-10-22T14:46:19.873Z,101434.53
2022-10-22T14:48:46.618Z,101429.94
2022-10-22T14:51:15.350Z,101426.81
2022-10-22T14:53:42.501Z,101437.97
2022-10-22T14:56:13.946Z,101446.00
2022-10-22T14:58:41.235Z,101453.50
2022-10-22T15:01:08.673Z,101445.31
2022-10-22T15:03:36.022Z,101450.28
2022-10-22T15:06:03.555Z,101453.94
2022-10-22T15:08:30.577Z,101459.38
2022-10-22T15:11:08.293Z,101457.44
2022-10-22T15:13:35.473Z,101451.16
2022-10-22T15:16:05.335Z,101451.25
2022-10-22T15:18:31.923Z,101464.31
2022-10-22T15:21:00.530Z,101461.09
2022-10-22T15:23:27.632Z,101459.28
2022-10-22T15:25:55.033Z,101463.25
2022-10-22T15:28:22.018Z,101460.25
2022-10-22T15:31:00.401Z,101471.41
2022-10-22T15:33:28.522Z,101469.22
2022-10-22T15:35:56.329Z,101471.56
2022-10-22T15:38:27.882Z,101462.38
2022-10-22T15:41:05.275Z,101465.53
2022-10-22T15:43:32.872Z,101459.81
2022-10-22T15:46:14.280Z,101468.91
2022-10-22T15:48:41.712Z,101465.72
2022-10-22T15:51:18.222Z,101455.47
2022-10-22T15:53:51.644Z,101460.25
2022-10-22T15:56:18.156Z,101446.13
2022-10-22T15:58:44.645Z,101452.38
2022-10-22T16:01:13.163Z,101463.28
2022-10-22T16:03:40.390Z,101466.38
2022-10-22T16:06:08.166Z,101467.19
2022-10-22T16:08:34.881Z,101469.84
2022-10-22T16:11:01.478Z,101471.50
2022-10-22T16:13:27.994Z,101481.13
2022-10-22T16:15:55.070Z,101475.56
2022-10-22T16:18:23.563Z,101473.09
2022-10-22T16:20:50.346Z,101484.75
2022-10-22T16:23:19.007Z,101494.59
2022-10-22T16:25:46.457Z,101500.72
2022-10-22T16:28:13.632Z,101499.09
2022-10-22T16:30:40.379Z,101489.84
2022-10-22T16:33:07.695Z,101484.50
2022-10-22T16:35:34.295Z,101483.47
2022-10-22T16:38:00.839Z,101481.59
2022-10-22T16:40:29.130Z,101474.63
2022-10-22T16:42:55.680Z,101477.06
2022-10-22T16:45:22.163Z,101474.09
2022-10-22T16:47:49.257Z,101476.94
2022-10-22T16:50:15.847Z,101472.16
2022-10-22T16:52:42.701Z,101475.81
2022-10-22T16:55:09.719Z,101479.22
2022-10-22T16:57:36.301Z,101466.25
2022-10-22T17:00:05.406Z,101477.88
2022-10-22T17:02:31.940Z,101478.22
2022-10-22T17:04:58.486Z,101481.47
2022-10-22T17:07:24.979Z,101478.94
2022-10-22T17:09:51.719Z,101482.81
2022-10-22T17:12:18.273Z,101479.94
2022-10-22T17:14:44.751Z,101479.75
2022-10-22T17:17:11.272Z,101478.13
2022-10-22T17:19:38.935Z,101486.69
2022-10-22T17:22:05.694Z,101500.81
2022-10-22T17:24:32.253Z,101503.41
2022-10-22T17:26:58.854Z,101505.47
2022-10-22T17:29:25.448Z,101513.81
2022-10-22T17:31:52.695Z,101512.81
2022-10-22T17:34:19.184Z,101500.69
2022-10-22T17:36:45.769Z,101518.13
2022-10-22T17:39:17.251Z,101513.06
2022-10-22T17:41:43.889Z,101514.31
2022-10-22T17:44:12.280Z,101510.84
2022-10-22T17:46:39.016Z,101512.09
2022-10-22T17:49:12.256Z,101512.28
2022-10-22T17:51:38.763Z,101514.25
2022-10-22T17:54:07.480Z,101517.94
2022-10-22T17:56:37.359Z,101508.69
2022-10-22T17:59:04.357Z,101507.03
2022-10-22T18:01:33.808Z,101509.75
2022-10-22T18:04:04.061Z,101515.91
2022-10-22T18:06:31.442Z,101508.13
2022-10-22T18:08:58.334Z,101510.41
2022-10-22T18:11:26.793Z,101510.59
2022-10-22T18:13:55.881Z,101515.28
2022-10-22T18:16:22.642Z,101509.31
2022-10-22T18:18:51.616Z,101511.72
2022-10-22T18:21:18.176Z,101504.78
2022-10-22T18:23:45.738Z,101511.28
2022-10-22T18:26:12.908Z,101513.03
2022-10-22T18:28:39.471Z,101515.91
2022-10-22T18:31:12.347Z,101506.09
2022-10-22T18:33:39.577Z,101504.47
2022-10-22T18:36:09.417Z,101501.16
2022-10-22T18:38:38.227Z,101504.84
2022-10-22T18:41:09.916Z,101506.88
2022-10-22T18:43:37.060Z,101504.59
2022-10-22T18:46:06.745Z,101514.59
2022-10-22T18:48:34.885Z,101509.63
2022-10-22T18:51:05.414Z,101504.09
2022-10-22T18:53:32.137Z,101507.59
2022-10-22T18:55:58.696Z,101504.94
2022-10-22T18:58:25.190Z,101514.41
2022-10-22T19:00:51.975Z,101508.06
2022-10-22T19:03:18.690Z,101516.47
2022-10-22T19:05:53.168Z,101504.41
2022-10-22T19:08:20.069Z,101504.25
2022-10-22T19:10:47.749Z,101504.06
2022-10-22T19:13:16.216Z,101501.59
2022-10-22T19:15:42.875Z,101493.19
2022-10-22T19:18:09.898Z,101496.22
2022-10-22T19:20:37.482Z,101495.59
2022-10-22T19:23:04.245Z,101489.44
2022-10-22T19:25:30.751Z,101491.44
2022-10-22T19:27:57.314Z,101485.13
2022-10-22T19:30:24.332Z,101483.66
2022-10-22T19:32:50.917Z,101476.03
2022-10-22T19:35:17.939Z,101480.28
2022-10-22T19:37:48.263Z,101478.06
2022-10-22T19:40:15.161Z,101480.72
2022-10-22T19:42:44.680Z,101484.59
2022-10-22T19:45:11.473Z,101477.81
2022-10-22T19:47:38.047Z,101479.84
2022-10-22T19:50:05.616Z,101488.56
2022-10-22T19:52:33.261Z,101479.78
2022-10-22T19:54:59.763Z,101480.97
2022-10-22T19:57:26.281Z,101485.00
2022-10-22T19:59:52.800Z,101485.66
2022-10-22T20:02:19.562Z,101485.72
2022-10-22T20:04:49.968Z,101486.81
2022-10-22T20:07:17.390Z,101486.03
2022-10-22T20:09:43.947Z,101481.56
2022-10-22T20:12:10.615Z,101482.19
2022-10-22T20:14:37.526Z,101483.03
2022-10-22T20:17:04.368Z,101494.56
2022-10-22T20:19:30.972Z,101493.94
2022-10-22T20:24:29.142Z,101518.31
2022-10-22T20:26:55.732Z,101511.34
2022-10-22T20:29:22.285Z,101502.97
2022-10-22T20:31:48.863Z,101499.75
2022-10-22T20:34:15.827Z,101505.31
2022-10-22T20:36:42.686Z,101498.56
2022-10-22T20:39:14.331Z,101496.91
2022-10-22T20:41:41.152Z,101504.91
2022-10-22T20:44:12.526Z,101510.84
2022-10-22T20:46:39.056Z,101509.06
2022-10-22T20:49:08.884Z,101514.50
2022-10-22T20:51:36.901Z,101508.44
2022-10-22T20:54:04.408Z,101508.47
2022-10-22T20:56:32.115Z,101499.50
2022-10-22T20:59:05.566Z,101498.72
2022-10-22T21:01:40.841Z,101494.56
2022-10-22T21:04:08.179Z,101501.03
2022-10-22T21:06:38.000Z,101499.56
2022-10-22T21:09:08.874Z,101496.66
2022-10-22T21:11:37.159Z,101498.91
2022-10-22T21:14:04.984Z,101496.69
2022-10-22T21:16:31.672Z,101490.53
2022-10-22T21:18:58.514Z,101488.97
2022-10-22T21:21:25.518Z,101488.13
2022-10-22T21:23:52.519Z,101490.34
2022-10-22T21:26:20.468Z,101501.44
2022-10-22T21:28:47.755Z,101490.78
2022-10-22T21:31:22.026Z,101493.44
2022-10-22T21:33:50.013Z,101486.50
2022-10-22T21:36:21.654Z,101482.81
2022-10-22T21:38:50.388Z,101478.13
2022-10-22T21:41:18.241Z,101481.03
2022-10-22T21:43:45.557Z,101481.28
2022-10-22T21:46:17.959Z,101479.88
2022-10-22T21:48:45.036Z,101483.34
2022-10-22T21:51:14.597Z,101476.00
2022-10-22T21:53:41.668Z,101476.81
2022-10-22T21:56:15.364Z,101473.09
2022-10-22T21:58:42.114Z,101479.25
2022-10-22T22:01:08.749Z,101470.19
2022-10-22T22:03:35.438Z,101480.16
2022-10-22T22:06:05.544Z,101477.44
2022-10-22T22:08:33.495Z,101486.59
2022-10-22T22:11:06.072Z,101487.13
2022-10-22T22:13:33.500Z,101479.09
2022-10-22T22:16:12.008Z,101476.25
2022-10-22T22:18:40.124Z,101468.66
2022-10-22T22:21:10.119Z,101467.22
2022-10-22T22:23:37.919Z,101468.22
2022-10-22T22:26:04.472Z,101442.44
2022-10-22T22:28:32.236Z,101450.22
2022-10-22T22:30:59.104Z,101454.31
2022-10-22T22:33:25.672Z,101454.22
2022-10-22T22:35:52.460Z,101452.38
2022-10-22T22:38:18.905Z,101446.59
2022-10-22T22:40:45.377Z,101457.63
2022-10-22T22:43:11.832Z,101454.50
2022-10-22T22:45:40.718Z,101462.28
2022-10-22T22:48:07.722Z,101463.72
2022-10-22T22:50:35.563Z,101457.56
2022-10-22T22:53:02.050Z,101453.69
2022-10-22T22:55:31.837Z,101441.84
2022-10-22T22:57:58.646Z,101437.91
2022-10-22T23:00:25.177Z,101438.75
2022-10-22T23:02:55.396Z,101428.69
2022-10-22T23:05:21.964Z,101434.25
2022-10-22T23:07:49.236Z,101426.47
2022-10-22T23:10:15.842Z,101421.97
2022-10-22T23:12:42.722Z,101415.44
2022-10-22T23:15:09.897Z,101420.38
2022-10-22T23:20:08.482Z,101410.03
2022-10-22T23:22:34.913Z,101406.97
2022-10-22T23:25:01.567Z,101408.69
2022-10-22T23:27:27.994Z,101396.59
2022-10-22T23:29:54.467Z,101399.88
2022-10-22T23:32:20.910Z,101395.00
2022-10-22T23:34:47.393Z,101394.59
2022-10-22T23:37:13.901Z,101389.09
2022-10-22T23:39:40.343Z,101390.75
2022-10-22T23:42:06.840Z,101376.63
2022-10-22T23:44:33.320Z,101383.56
2022-10-22T23:46:59.757Z,101376.19
2022-10-22T23:49:26.338Z,101373.91
2022-10-22T23:51:52.799Z,101369.19
2022-10-22T23:54:19.316Z,101366.88
2022-10-22T23:56:46.607Z,101365.69
